sensor_id;sensor_type;location;lat;lon;timestamp;pressure;altitude;pressure_sealevel;temperature;humidity
76627;BME280;65519;53.230;10.390;2023-03-01T00:01:28;102854.31;;;-0.69;69.59
76627;BME280;65519;53.230;10.390;2023-03-01T00:03:54;102861.06;;;-0.94;70.13
76627;BME280;65519;53.230;10.390;2023-03-01T00:06:21;102835.72;;;-0.80;69.74
76627;BME280;65519;53.230;10.390;2023-03-01T00:08:47;102852.34;;;-0.67;69.79
76627;BME280;65519;53.230;10.390;2023-03-01T00:13:42;102842.47;;;-0.66;69.60
76627;BME280;65519;53.230;10.390;2023-03-01T00:16:11;102842.19;;;-0.92;70.16
76627;BME280;65519;53.230;10.390;2023-03-01T00:18:38;102843.59;;;-0.69;69.98
76627;BME280;65519;53.230;10.390;2023-03-01T00:21:03;102834.28;;;-0.65;69.15
76627;BME280;65519;53.230;10.390;2023-03-01T00:23:29;102840.78;;;-0.77;70.07
76627;BME280;65519;53.230;10.390;2023-03-01T00:25:54;102837.41;;;-0.79;69.67
76627;BME280;65519;53.230;10.390;2023-03-01T00:28:20;102834.84;;;-1.29;71.06
76627;BME280;65519;53.230;10.390;2023-03-01T00:30:46;102835.97;;;-1.41;71.69
76627;BME280;65519;53.230;10.390;2023-03-01T00:33:11;102838.59;;;-1.51;72.07
76627;BME280;65519;53.230;10.390;2023-03-01T00:35:37;102845.38;;;-1.47;71.81
76627;BME280;65519;53.230;10.390;2023-03-01T00:38:02;102846.06;;;-1.64;72.29
76627;BME280;65519;53.230;10.390;2023-03-01T00:40:29;102840.50;;;-1.72;72.54
76627;BME280;65519;53.230;10.390;2023-03-01T00:42:55;102838.47;;;-1.49;72.32
76627;BME280;65519;53.230;10.390;2023-03-01T00:45:21;102841.13;;;-1.49;71.96
76627;BME280;65519;53.230;10.390;2023-03-01T00:47:48;102841.16;;;-1.39;72.19
76627;BME280;65519;53.230;10.390;2023-03-01T00:50:13;102844.44;;;-1.07;70.81
76627;BME280;65519;53.230;10.390;2023-03-01T00:52:39;102841.22;;;-0.91;69.90
76627;BME280;65519;53.230;10.390;2023-03-01T00:55:05;102850.03;;;-1.29;70.88
76627;BME280;65519;53.230;10.390;2023-03-01T00:57:31;102845.00;;;-1.32;71.42
76627;BME280;65519;53.230;10.390;2023-03-01T00:59:57;102838.19;;;-1.46;71.98
76627;BME280;65519;53.230;10.390;2023-03-01T01:02:22;102848.38;;;-1.30;71.90
76627;BME280;65519;53.230;10.390;2023-03-01T01:04:48;102841.75;;;-1.07;71.06
76627;BME280;65519;53.230;10.390;2023-03-01T01:07:14;102841.78;;;-0.97;71.04
76627;BME280;65519;53.230;10.390;2023-03-01T01:09:40;102837.34;;;-1.47;71.44
76627;BME280;65519;53.230;10.390;2023-03-01T01:12:06;102832.81;;;-1.65;72.49
76627;BME280;65519;53.230;10.390;2023-03-01T01:14:31;102823.25;;;-1.49;72.25
76627;BME280;65519;53.230;10.390;2023-03-01T01:16:57;102825.53;;;-1.54;72.36
76627;BME280;65519;53.230;10.390;2023-03-01T01:19:22;102827.94;;;-1.41;72.34
76627;BME280;65519;53.230;10.390;2023-03-01T01:21:48;102832.44;;;-1.41;71.91
76627;BME280;65519;53.230;10.390;2023-03-01T01:24:13;102820.44;;;-1.57;72.19
76627;BME280;65519;53.230;10.390;2023-03-01T01:26:39;102822.75;;;-1.33;71.91
76627;BME280;65519;53.230;10.390;2023-03-01T01:29:05;102827.78;;;-1.39;72.04
76627;BME280;65519;53.230;10.390;2023-03-01T01:31:32;102821.19;;;-1.35;72.13
76627;BME280;65519;53.230;10.390;2023-03-01T01:34:00;102818.50;;;-1.35;72.19
76627;BME280;65519;53.230;10.390;2023-03-01T01:36:25;102814.28;;;-1.28;71.49
76627;BME280;65519;53.230;10.390;2023-03-01T01:38:51;102811.56;;;-1.67;72.21
76627;BME280;65519;53.230;10.390;2023-03-01T01:41:17;102803.69;;;-1.39;72.07
76627;BME280;65519;53.230;10.390;2023-03-01T01:44:10;102815.38;;;-1.40;71.85
76627;BME280;65519;53.230;10.390;2023-03-01T01:46:39;102809.50;;;-1.44;71.46
76627;BME280;65519;53.230;10.390;2023-03-01T01:49:33;102799.91;;;-1.47;71.49
76627;BME280;65519;53.230;10.390;2023-03-01T01:54:37;102792.88;;;-1.19;70.33
76627;BME280;65519;53.230;10.390;2023-03-01T01:57:07;102786.53;;;-1.47;70.92
76627;BME280;65519;53.230;10.390;2023-03-01T01:59:34;102787.75;;;-1.70;71.69
76627;BME280;65519;53.230;10.390;2023-03-01T02:02:02;102792.69;;;-2.15;72.88
76627;BME280;65519;53.230;10.390;2023-03-01T02:04:29;102797.34;;;-2.17;73.93
76627;BME280;65519;53.230;10.390;2023-03-01T02:07:09;102786.03;;;-1.90;72.09
76627;BME280;65519;53.230;10.390;2023-03-01T02:09:38;102790.28;;;-1.78;72.00
76627;BME280;65519;53.230;10.390;2023-03-01T02:12:04;102780.16;;;-1.84;71.94
76627;BME280;65519;53.230;10.390;2023-03-01T02:14:30;102783.09;;;-1.87;72.35
76627;BME280;65519;53.230;10.390;2023-03-01T02:16:56;102782.09;;;-1.86;73.69
76627;BME280;65519;53.230;10.390;2023-03-01T02:19:57;102779.97;;;-1.92;73.71
76627;BME280;65519;53.230;10.390;2023-03-01T02:22:29;102776.16;;;-1.99;73.73
76627;BME280;65519;53.230;10.390;2023-03-01T02:30:33;102772.41;;;-2.27;74.73
76627;BME280;65519;53.230;10.390;2023-03-01T02:33:00;102767.84;;;-2.36;75.63
76627;BME280;65519;53.230;10.390;2023-03-01T02:35:35;102760.81;;;-2.37;75.49
76627;BME280;65519;53.230;10.390;2023-03-01T02:38:03;102762.16;;;-2.52;75.87
76627;BME280;65519;53.230;10.390;2023-03-01T02:40:30;102768.69;;;-2.36;76.06
76627;BME280;65519;53.230;10.390;2023-03-01T02:42:58;102761.44;;;-2.24;75.57
76627;BME280;65519;53.230;10.390;2023-03-01T02:45:25;102761.81;;;-1.98;74.74
76627;BME280;65519;53.230;10.390;2023-03-01T02:47:54;102760.97;;;-1.99;74.26
76627;BME280;65519;53.230;10.390;2023-03-01T02:53:03;102755.97;;;-2.23;74.53
76627;BME280;65519;53.230;10.390;2023-03-01T02:55:33;102759.75;;;-1.85;73.77
76627;BME280;65519;53.230;10.390;2023-03-01T02:58:01;102755.72;;;-2.10;73.63
76627;BME280;65519;53.230;10.390;2023-03-01T03:00:32;102760.09;;;-2.09;74.26
76627;BME280;65519;53.230;10.390;2023-03-01T03:02:59;102759.41;;;-1.92;73.65
76627;BME280;65519;53.230;10.390;2023-03-01T03:05:29;102748.28;;;-2.06;73.91
76627;BME280;65519;53.230;10.390;2023-03-01T03:07:56;102757.34;;;-1.78;73.40
76627;BME280;65519;53.230;10.390;2023-03-01T03:10:24;102759.03;;;-1.87;73.12
76627;BME280;65519;53.230;10.390;2023-03-01T03:12:54;102748.06;;;-1.84;73.05
76627;BME280;65519;53.230;10.390;2023-03-01T03:15:21;102741.88;;;-1.75;72.71
76627;BME280;65519;53.230;10.390;2023-03-01T03:17:47;102744.13;;;-1.80;73.00
76627;BME280;65519;53.230;10.390;2023-03-01T03:20:16;102742.88;;;-1.66;72.79
76627;BME280;65519;53.230;10.390;2023-03-01T03:22:45;102735.34;;;-2.01;72.61
76627;BME280;65519;53.230;10.390;2023-03-01T03:25:11;102741.72;;;-2.33;74.31
76627;BME280;65519;53.230;10.390;2023-03-01T03:27:38;102750.47;;;-2.21;74.11
76627;BME280;65519;53.230;10.390;2023-03-01T03:30:06;102740.63;;;-2.30;74.20
76627;BME280;65519;53.230;10.390;2023-03-01T03:32:42;102740.09;;;-2.14;73.79
76627;BME280;65519;53.230;10.390;2023-03-01T03:35:18;102735.03;;;-2.17;74.20
76627;BME280;65519;53.230;10.390;2023-03-01T03:37:44;102729.19;;;-1.92;73.76
76627;BME280;65519;53.230;10.390;2023-03-01T03:40:38;102725.09;;;-1.96;73.03
76627;BME280;65519;53.230;10.390;2023-03-01T03:43:09;102732.69;;;-2.01;73.38
76627;BME280;65519;53.230;10.390;2023-03-01T03:45:35;102732.41;;;-1.98;73.19
76627;BME280;65519;53.230;10.390;2023-03-01T03:48:03;102732.84;;;-1.84;73.03
76627;BME280;65519;53.230;10.390;2023-03-01T03:50:30;102729.19;;;-1.83;72.08
76627;BME280;65519;53.230;10.390;2023-03-01T03:52:55;102719.78;;;-1.87;71.96
76627;BME280;65519;53.230;10.390;2023-03-01T03:55:21;102721.88;;;-1.90;71.60
76627;BME280;65519;53.230;10.390;2023-03-01T03:57:47;102720.63;;;-1.76;71.83
76627;BME280;65519;53.230;10.390;2023-03-01T04:00:17;102718.31;;;-2.10;73.09
76627;BME280;65519;53.230;10.390;2023-03-01T04:02:44;102720.16;;;-2.01;72.63
76627;BME280;65519;53.230;10.390;2023-03-01T04:05:12;102712.00;;;-2.09;73.08
76627;BME280;65519;53.230;10.390;2023-03-01T04:07:38;102705.81;;;-2.09;72.83
76627;BME280;65519;53.230;10.390;2023-03-01T04:10:05;102708.94;;;-1.85;72.39
76627;BME280;65519;53.230;10.390;2023-03-01T04:12:32;102706.09;;;-2.03;72.33
76627;BME280;65519;53.230;10.390;2023-03-01T04:14:59;102711.75;;;-1.96;72.09
76627;BME280;65519;53.230;10.390;2023-03-01T04:17:25;102714.97;;;-1.83;72.18
76627;BME280;65519;53.230;10.390;2023-03-01T04:19:50;102716.34;;;-2.08;72.83
76627;BME280;65519;53.230;10.390;2023-03-01T04:22:16;102716.91;;;-2.54;74.77
76627;BME280;65519;53.230;10.390;2023-03-01T04:24:42;102720.97;;;-2.80;75.85
76627;BME280;65519;53.230;10.390;2023-03-01T04:27:08;102722.19;;;-2.64;75.24
76627;BME280;65519;53.230;10.390;2023-03-01T04:29:33;102722.44;;;-2.67;75.54
76627;BME280;65519;53.230;10.390;2023-03-01T04:31:59;102724.44;;;-2.59;77.51
76627;BME280;65519;53.230;10.390;2023-03-01T04:34:24;102721.44;;;-2.45;77.85
76627;BME280;65519;53.230;10.390;2023-03-01T04:36:52;102718.41;;;-2.31;76.65
76627;BME280;65519;53.230;10.390;2023-03-01T04:39:17;102710.97;;;-2.27;75.77
76627;BME280;65519;53.230;10.390;2023-03-01T04:41:42;102714.81;;;-2.50;74.32
76627;BME280;65519;53.230;10.390;2023-03-01T04:44:08;102710.13;;;-2.58;74.27
76627;BME280;65519;53.230;10.390;2023-03-01T04:46:35;102720.41;;;-2.53;74.41
76627;BME280;65519;53.230;10.390;2023-03-01T04:49:02;102722.53;;;-2.47;73.80
76627;BME280;65519;53.230;10.390;2023-03-01T04:51:27;102726.13;;;-2.58;74.31
76627;BME280;65519;53.230;10.390;2023-03-01T04:53:53;102715.66;;;-2.50;74.08
76627;BME280;65519;53.230;10.390;2023-03-01T04:56:18;102715.72;;;-2.31;73.79
76627;BME280;65519;53.230;10.390;2023-03-01T04:58:44;102715.94;;;-2.43;74.44
76627;BME280;65519;53.230;10.390;2023-03-01T05:01:18;102710.84;;;-2.56;74.76
76627;BME280;65519;53.230;10.390;2023-03-01T05:03:46;102707.44;;;-2.28;74.37
76627;BME280;65519;53.230;10.390;2023-03-01T05:06:12;102713.88;;;-2.40;73.79
76627;BME280;65519;53.230;10.390;2023-03-01T05:08:38;102711.53;;;-2.14;73.51
76627;BME280;65519;53.230;10.390;2023-03-01T05:11:04;102716.00;;;-2.24;72.88
76627;BME280;65519;53.230;10.390;2023-03-01T05:13:30;102707.97;;;-2.34;73.07
76627;BME280;65519;53.230;10.390;2023-03-01T05:16:00;102717.19;;;-2.17;72.60
76627;BME280;65519;53.230;10.390;2023-03-01T05:18:27;102713.28;;;-2.43;73.19
76627;BME280;65519;53.230;10.390;2023-03-01T05:20:53;102714.44;;;-2.27;72.59
76627;BME280;65519;53.230;10.390;2023-03-01T05:23:21;102718.84;;;-2.56;73.28
76627;BME280;65519;53.230;10.390;2023-03-01T05:25:47;102717.75;;;-2.84;74.52
76627;BME280;65519;53.230;10.390;2023-03-01T05:28:13;102714.31;;;-2.65;73.61
76627;BME280;65519;53.230;10.390;2023-03-01T05:30:39;102709.84;;;-2.55;73.48
76627;BME280;65519;53.230;10.390;2023-03-01T05:33:05;102712.47;;;-2.34;73.06
76627;BME280;65519;53.230;10.390;2023-03-01T05:35:35;102710.13;;;-2.58;73.55
76627;BME280;65519;53.230;10.390;2023-03-01T05:38:00;102713.34;;;-2.64;74.06
76627;BME280;65519;53.230;10.390;2023-03-01T05:40:26;102707.91;;;-2.53;73.56
76627;BME280;65519;53.230;10.390;2023-03-01T05:42:56;102707.22;;;-2.45;73.14
76627;BME280;65519;53.230;10.390;2023-03-01T05:45:23;102701.78;;;-2.34;73.07
76627;BME280;65519;53.230;10.390;2023-03-01T05:47:50;102704.31;;;-2.33;73.40
76627;BME280;65519;53.230;10.390;2023-03-01T05:52:49;102708.63;;;-2.51;73.82
76627;BME280;65519;53.230;10.390;2023-03-01T05:55:20;102697.31;;;-2.95;75.48
76627;BME280;65519;53.230;10.390;2023-03-01T05:57:46;102696.94;;;-2.80;74.93
76627;BME280;65519;53.230;10.390;2023-03-01T06:00:14;102702.91;;;-2.67;74.73
76627;BME280;65519;53.230;10.390;2023-03-01T06:02:40;102709.84;;;-2.55;74.10
76627;BME280;65519;53.230;10.390;2023-03-01T06:05:08;102706.81;;;-2.50;74.05
76627;BME280;65519;53.230;10.390;2023-03-01T06:07:34;102707.81;;;-2.42;74.24
76627;BME280;65519;53.230;10.390;2023-03-01T06:10:00;102706.47;;;-2.57;75.15
76627;BME280;65519;53.230;10.390;2023-03-01T06:12:25;102703.81;;;-2.57;75.21
76627;BME280;65519;53.230;10.390;2023-03-01T06:14:51;102705.84;;;-2.40;74.44
76627;BME280;65519;53.230;10.390;2023-03-01T06:17:16;102703.06;;;-2.38;74.03
76627;BME280;65519;53.230;10.390;2023-03-01T06:19:41;102695.59;;;-2.35;74.56
76627;BME280;65519;53.230;10.390;2023-03-01T06:22:07;102705.16;;;-2.32;74.98
76627;BME280;65519;53.230;10.390;2023-03-01T06:24:33;102703.09;;;-2.19;74.54
76627;BME280;65519;53.230;10.390;2023-03-01T06:26:59;102706.03;;;-2.62;76.30
76627;BME280;65519;53.230;10.390;2023-03-01T06:29:24;102696.34;;;-2.23;75.57
76627;BME280;65519;53.230;10.390;2023-03-01T06:31:49;102706.06;;;-2.12;75.52
76627;BME280;65519;53.230;10.390;2023-03-01T06:34:15;102694.56;;;-2.03;74.47
76627;BME280;65519;53.230;10.390;2023-03-01T06:36:40;102692.59;;;-2.01;74.59
76627;BME280;65519;53.230;10.390;2023-03-01T06:39:06;102682.28;;;-2.15;74.97
76627;BME280;65519;53.230;10.390;2023-03-01T06:41:32;102678.81;;;-2.06;75.30
76627;BME280;65519;53.230;10.390;2023-03-01T06:43:59;102683.00;;;-2.13;74.65
76627;BME280;65519;53.230;10.390;2023-03-01T06:46:24;102683.84;;;-2.13;75.33
76627;BME280;65519;53.230;10.390;2023-03-01T06:48:50;102682.75;;;-1.91;75.08
76627;BME280;65519;53.230;10.390;2023-03-01T06:51:15;102692.34;;;-1.79;74.78
76627;BME280;65519;53.230;10.390;2023-03-01T06:53:40;102696.84;;;-1.60;73.84
76627;BME280;65519;53.230;10.390;2023-03-01T06:56:06;102698.97;;;-1.73;75.20
76627;BME280;65519;53.230;10.390;2023-03-01T06:58:31;102700.53;;;-1.52;74.78
76627;BME280;65519;53.230;10.390;2023-03-01T07:00:56;102702.50;;;-1.54;74.46
76627;BME280;65519;53.230;10.390;2023-03-01T07:03:22;102701.53;;;-1.53;74.87
76627;BME280;65519;53.230;10.390;2023-03-01T07:05:49;102704.88;;;-1.60;75.23
76627;BME280;65519;53.230;10.390;2023-03-01T07:08:16;102701.94;;;-1.67;74.13
76627;BME280;65519;53.230;10.390;2023-03-01T07:10:42;102698.28;;;-1.56;74.31
76627;BME280;65519;53.230;10.390;2023-03-01T07:13:08;102698.41;;;-1.38;74.40
76627;BME280;65519;53.230;10.390;2023-03-01T07:15:33;102699.38;;;-1.11;73.35
76627;BME280;65519;53.230;10.390;2023-03-01T07:17:58;102691.47;;;-1.12;73.13
76627;BME280;65519;53.230;10.390;2023-03-01T07:20:24;102686.13;;;-1.12;73.31
76627;BME280;65519;53.230;10.390;2023-03-01T07:22:54;102694.16;;;-1.12;73.73
76627;BME280;65519;53.230;10.390;2023-03-01T07:25:19;102682.16;;;-0.98;73.57
76627;BME280;65519;53.230;10.390;2023-03-01T07:27:52;102695.09;;;-0.94;73.36
76627;BME280;65519;53.230;10.390;2023-03-01T07:30:17;102687.97;;;-0.76;73.21
76627;BME280;65519;53.230;10.390;2023-03-01T07:32:43;102684.44;;;-0.66;73.34
76627;BME280;65519;53.230;10.390;2023-03-01T07:35:08;102681.06;;;-0.68;74.00
76627;BME280;65519;53.230;10.390;2023-03-01T07:37:33;102683.09;;;-0.53;73.64
76627;BME280;65519;53.230;10.390;2023-03-01T07:39:59;102690.19;;;-0.61;74.88
76627;BME280;65519;53.230;10.390;2023-03-01T07:42:24;102693.81;;;-0.53;74.74
76627;BME280;65519;53.230;10.390;2023-03-01T07:44:49;102688.41;;;-0.33;73.99
76627;BME280;65519;53.230;10.390;2023-03-01T07:47:15;102689.47;;;-0.26;72.51
76627;BME280;65519;53.230;10.390;2023-03-01T07:49:40;102682.47;;;-0.37;72.66
76627;BME280;65519;53.230;10.390;2023-03-01T07:52:06;102677.69;;;-0.43;72.99
76627;BME280;65519;53.230;10.390;2023-03-01T07:54:31;102674.88;;;-0.69;74.68
76627;BME280;65519;53.230;10.390;2023-03-01T07:56:57;102681.72;;;-0.57;74.56
76627;BME280;65519;53.230;10.390;2023-03-01T07:59:22;102672.91;;;-0.67;74.49
76627;BME280;65519;53.230;10.390;2023-03-01T08:01:54;102684.06;;;-0.44;74.42
76627;BME280;65519;53.230;10.390;2023-03-01T08:04:19;102678.19;;;-0.30;74.04
76627;BME280;65519;53.230;10.390;2023-03-01T08:06:44;102678.91;;;-0.01;73.18
76627;BME280;65519;53.230;10.390;2023-03-01T08:09:10;102681.50;;;0.09;72.85
76627;BME280;65519;53.230;10.390;2023-03-01T08:11:35;102674.75;;;-0.13;73.38
76627;BME280;65519;53.230;10.390;2023-03-01T08:14:01;102681.59;;;-0.28;74.08
76627;BME280;65519;53.230;10.390;2023-03-01T08:16:26;102681.59;;;-0.10;74.32
76627;BME280;65519;53.230;10.390;2023-03-01T08:18:51;102656.91;;;-0.04;73.50
76627;BME280;65519;53.230;10.390;2023-03-01T08:21:18;102671.69;;;0.18;73.19
76627;BME280;65519;53.230;10.390;2023-03-01T08:23:43;102676.00;;;0.11;73.94
76627;BME280;65519;53.230;10.390;2023-03-01T08:26:14;102672.75;;;0.25;73.31
76627;BME280;65519;53.230;10.390;2023-03-01T08:28:41;102671.00;;;0.33;73.35
76627;BME280;65519;53.230;10.390;2023-03-01T08:31:34;102682.50;;;0.61;72.52
76627;BME280;65519;53.230;10.390;2023-03-01T08:34:02;102677.56;;;0.75;72.11
76627;BME280;65519;53.230;10.390;2023-03-01T08:36:32;102685.44;;;0.94;71.47
76627;BME280;65519;53.230;10.390;2023-03-01T08:38:58;102680.06;;;0.94;71.51
76627;BME280;65519;53.230;10.390;2023-03-01T08:41:23;102683.75;;;0.93;71.38
76627;BME280;65519;53.230;10.390;2023-03-01T08:43:50;102686.19;;;1.04;71.20
76627;BME280;65519;53.230;10.390;2023-03-01T08:46:16;102681.97;;;1.27;69.68
76627;BME280;65519;53.230;10.390;2023-03-01T08:48:42;102681.13;;;1.27;70.22
76627;BME280;65519;53.230;10.390;2023-03-01T08:51:15;102689.06;;;1.36;69.94
76627;BME280;65519;53.230;10.390;2023-03-01T08:53:41;102685.22;;;1.39;70.61
76627;BME280;65519;53.230;10.390;2023-03-01T08:56:07;102674.66;;;1.45;70.29
76627;BME280;65519;53.230;10.390;2023-03-01T08:58:33;102672.13;;;1.44;70.40
76627;BME280;65519;53.230;10.390;2023-03-01T09:00:58;102665.22;;;1.41;70.53
76627;BME280;65519;53.230;10.390;2023-03-01T09:03:24;102669.81;;;1.49;69.83
76627;BME280;65519;53.230;10.390;2023-03-01T09:05:51;102666.50;;;1.63;69.41
76627;BME280;65519;53.230;10.390;2023-03-01T09:08:17;102663.84;;;1.71;70.24
76627;BME280;65519;53.230;10.390;2023-03-01T09:10:42;102656.50;;;1.90;68.99
76627;BME280;65519;53.230;10.390;2023-03-01T09:13:08;102655.22;;;2.18;69.09
76627;BME280;65519;53.230;10.390;2023-03-01T09:15:33;102656.78;;;2.45;68.03
76627;BME280;65519;53.230;10.390;2023-03-01T09:17:59;102654.41;;;2.50;66.72
76627;BME280;65519;53.230;10.390;2023-03-01T09:20:24;102661.63;;;2.74;66.67
76627;BME280;65519;53.230;10.390;2023-03-01T09:22:50;102665.34;;;2.89;66.62
76627;BME280;65519;53.230;10.390;2023-03-01T09:25:15;102661.09;;;3.11;64.71
76627;BME280;65519;53.230;10.390;2023-03-01T09:27:41;102673.19;;;3.23;64.51
76627;BME280;65519;53.230;10.390;2023-03-01T09:30:07;102667.94;;;3.29;63.88
76627;BME280;65519;53.230;10.390;2023-03-01T09:32:33;102662.19;;;3.41;62.09
76627;BME280;65519;53.230;10.390;2023-03-01T09:34:59;102661.16;;;3.42;62.45
76627;BME280;65519;53.230;10.390;2023-03-01T09:37:29;102659.56;;;3.63;63.00
76627;BME280;65519;53.230;10.390;2023-03-01T09:39:54;102665.25;;;3.77;63.09
76627;BME280;65519;53.230;10.390;2023-03-01T09:42:20;102664.88;;;3.80;62.70
76627;BME280;65519;53.230;10.390;2023-03-01T09:47:20;102668.16;;;3.98;62.21
76627;BME280;65519;53.230;10.390;2023-03-01T09:50:13;102641.84;;;4.23;61.62
76627;BME280;65519;53.230;10.390;2023-03-01T09:53:02;102655.94;;;4.56;61.51
76627;BME280;65519;53.230;10.390;2023-03-01T09:58:31;102654.84;;;5.02;59.49
76627;BME280;65519;53.230;10.390;2023-03-01T10:01:41;102659.50;;;5.08;59.79
76627;BME280;65519;53.230;10.390;2023-03-01T10:07:10;102662.22;;;5.23;60.45
76627;BME280;65519;53.230;10.390;2023-03-01T10:09:40;102659.13;;;5.41;60.38
76627;BME280;65519;53.230;10.390;2023-03-01T10:12:30;102663.22;;;5.66;60.24
76627;BME280;65519;53.230;10.390;2023-03-01T10:20:20;102660.69;;;5.79;59.45
76627;BME280;65519;53.230;10.390;2023-03-01T10:22:46;102648.03;;;5.95;58.86
76627;BME280;65519;53.230;10.390;2023-03-01T10:25:25;102636.28;;;6.09;61.21
76627;BME280;65519;53.230;10.390;2023-03-01T10:28:02;102636.94;;;6.11;59.45
76627;BME280;65519;53.230;10.390;2023-03-01T10:30:38;102641.16;;;6.35;58.82
76627;BME280;65519;53.230;10.390;2023-03-01T10:33:23;102637.53;;;6.70;59.37
76627;BME280;65519;53.230;10.390;2023-03-01T10:35:49;102636.47;;;6.99;58.41
76627;BME280;65519;53.230;10.390;2023-03-01T10:38:16;102638.31;;;7.26;57.98
76627;BME280;65519;53.230;10.390;2023-03-01T10:41:08;102635.13;;;7.51;57.04
76627;BME280;65519;53.230;10.390;2023-03-01T10:44:01;102631.63;;;7.63;55.69
76627;BME280;65519;53.230;10.390;2023-03-01T10:51:41;102634.06;;;8.13;54.62
76627;BME280;65519;53.230;10.390;2023-03-01T10:54:16;102622.66;;;8.37;53.99
76627;BME280;65519;53.230;10.390;2023-03-01T10:57:02;102635.13;;;8.12;54.30
76627;BME280;65519;53.230;10.390;2023-03-01T10:59:36;102624.56;;;8.43;53.49
76627;BME280;65519;53.230;10.390;2023-03-01T11:02:25;102619.13;;;8.83;54.13
76627;BME280;65519;53.230;10.390;2023-03-01T11:10:19;102614.44;;;9.29;53.64
76627;BME280;65519;53.230;10.390;2023-03-01T11:12:44;102619.91;;;9.29;53.46
76627;BME280;65519;53.230;10.390;2023-03-01T11:15:21;102612.13;;;9.33;54.24
76627;BME280;65519;53.230;10.390;2023-03-01T11:17:47;102610.28;;;9.27;53.92
76627;BME280;65519;53.230;10.390;2023-03-01T11:22:47;102607.81;;;9.05;53.71
76627;BME280;65519;53.230;10.390;2023-03-01T11:25:15;102610.47;;;9.25;53.54
76627;BME280;65519;53.230;10.390;2023-03-01T11:27:44;102601.03;;;9.34;53.88
76627;BME280;65519;53.230;10.390;2023-03-01T11:30:38;102600.09;;;9.53;54.82
76627;BME280;65519;53.230;10.390;2023-03-01T11:36:28;102600.47;;;9.64;53.56
76627;BME280;65519;53.230;10.390;2023-03-01T11:38:50;102599.59;;;9.76;53.64
76627;BME280;65519;53.230;10.390;2023-03-01T11:41:21;102594.28;;;9.95;52.70
76627;BME280;65519;53.230;10.390;2023-03-01T11:44:00;102595.34;;;9.87;52.97
76627;BME280;65519;53.230;10.390;2023-03-01T11:54:30;102580.53;;;10.14;52.09
76627;BME280;65519;53.230;10.390;2023-03-01T12:04:53;102564.59;;;10.11;52.34
76627;BME280;65519;53.230;10.390;2023-03-01T12:07:49;102570.31;;;9.72;52.73
76627;BME280;65519;53.230;10.390;2023-03-01T12:10:46;102566.69;;;9.78;52.62
76627;BME280;65519;53.230;10.390;2023-03-01T12:38:31;102528.94;;;11.24;49.43
76627;BME280;65519;53.230;10.390;2023-03-01T12:49:24;102506.19;;;10.93;51.22
76627;BME280;65519;53.230;10.390;2023-03-01T12:51:59;102506.94;;;11.19;50.54
76627;BME280;65519;53.230;10.390;2023-03-01T12:54:30;102506.50;;;11.22;50.10
76627;BME280;65519;53.230;10.390;2023-03-01T12:57:02;102501.16;;;11.45;49.84
76627;BME280;65519;53.230;10.390;2023-03-01T13:02:37;102494.13;;;11.67;49.73
76627;BME280;65519;53.230;10.390;2023-03-01T13:08:12;102489.00;;;11.71;48.45
76627;BME280;65519;53.230;10.390;2023-03-01T13:10:49;102491.19;;;11.81;47.84
76627;BME280;65519;53.230;10.390;2023-03-01T13:13:20;102483.22;;;11.79;48.38
76627;BME280;65519;53.230;10.390;2023-03-01T13:15:46;102482.16;;;11.80;49.13
76627;BME280;65519;53.230;10.390;2023-03-01T13:26:04;102482.34;;;11.97;47.82
76627;BME280;65519;53.230;10.390;2023-03-01T13:44:35;102461.41;;;12.84;47.04
76627;BME280;65519;53.230;10.390;2023-03-01T13:47:14;102458.78;;;12.89;46.60
76627;BME280;65519;53.230;10.390;2023-03-01T13:49:53;102457.44;;;13.15;46.05
76627;BME280;65519;53.230;10.390;2023-03-01T13:52:44;102459.56;;;13.13;45.45
76627;BME280;65519;53.230;10.390;2023-03-01T13:57:43;102456.88;;;12.90;46.07
76627;BME280;65519;53.230;10.390;2023-03-01T14:03:00;102455.22;;;12.77;46.07
76627;BME280;65519;53.230;10.390;2023-03-01T14:05:25;102433.28;;;12.49;45.88
76627;BME280;65519;53.230;10.390;2023-03-01T14:07:51;102452.28;;;12.67;45.59
76627;BME280;65519;53.230;10.390;2023-03-01T14:10:17;102445.63;;;12.74;46.54
76627;BME280;65519;53.230;10.390;2023-03-01T14:12:57;102450.69;;;12.94;45.68
76627;BME280;65519;53.230;10.390;2023-03-01T14:15:56;102444.81;;;12.62;45.53
76627;BME280;65519;53.230;10.390;2023-03-01T14:18:47;102434.88;;;12.85;45.06
76627;BME280;65519;53.230;10.390;2023-03-01T14:21:17;102437.44;;;13.14;45.43
76627;BME280;65519;53.230;10.390;2023-03-01T14:23:43;102428.31;;;12.97;44.50
76627;BME280;65519;53.230;10.390;2023-03-01T14:26:09;102432.84;;;13.32;44.10
76627;BME280;65519;53.230;10.390;2023-03-01T14:28:37;102430.78;;;13.39;43.70
76627;BME280;65519;53.230;10.390;2023-03-01T14:31:37;102428.13;;;13.44;43.94
76627;BME280;65519;53.230;10.390;2023-03-01T14:34:04;102424.38;;;13.62;44.67
76627;BME280;65519;53.230;10.390;2023-03-01T14:36:32;102416.53;;;13.53;43.75
76627;BME280;65519;53.230;10.390;2023-03-01T14:38:58;102406.41;;;13.87;42.89
76627;BME280;65519;53.230;10.390;2023-03-01T14:41:32;102397.13;;;13.88;42.20
76627;BME280;65519;53.230;10.390;2023-03-01T14:46:38;102400.59;;;14.17;42.00
76627;BME280;65519;53.230;10.390;2023-03-01T14:51:38;102399.88;;;13.88;43.28
76627;BME280;65519;53.230;10.390;2023-03-01T14:54:20;102383.34;;;16.69;37.71
76627;BME280;65519;53.230;10.390;2023-03-01T14:56:46;102387.72;;;15.27;39.35
76627;BME280;65519;53.230;10.390;2023-03-01T14:59:12;102396.28;;;13.88;42.21
76627;BME280;65519;53.230;10.390;2023-03-01T15:01:39;102400.44;;;13.00;45.08
76627;BME280;65519;53.230;10.390;2023-03-01T15:04:07;102388.94;;;13.27;45.11
76627;BME280;65519;53.230;10.390;2023-03-01T15:06:35;102386.94;;;13.10;44.47
76627;BME280;65519;53.230;10.390;2023-03-01T15:09:01;102391.22;;;12.78;45.28